Time;durP1;ratioP1;P1;durP2;ratioP2;P2;SDS_P1;SDS_P2;PMS_P1;PMS_P2;Temp;Humidity;BMP_temperature;BMP_pressure;BME280_temperature;BME280_humidity;BME280_pressure;Samples;Min_cycle;Max_cycle;Signal;HPM_P1;HPM_P2
2023/04/18 00:02:19;;;;;;;18.42;11.52;;;;;;;;;;5012194;28;20018;-64
2023/04/18 00:04:45;;;;;;;19.80;10.77;;;;;;;;;;5014360;28;20018;-61
2023/04/18 00:07:14;;;;;;;16.95;10.32;;;;;;;;;;5014888;28;20029;-64
2023/04/18 00:09:41;;;;;;;18.48;11.27;;;;;;;;;;5014881;28;20022;-63
2023/04/18 00:12:07;;;;;;;17.75;10.85;;;;;;;;;;5013539;28;20029;-63
2023/04/18 00:14:34;;;;;;;18.60;11.65;;;;;;;;;;5012851;28;20026;-64
2023/04/18 00:17:03;;;;;;;19.13;11.27;;;;;;;;;;5013481;28;20172;-63
2023/04/18 00:19:29;;;;;;;18.38;11.55;;;;;;;;;;5014337;28;20040;-64
2023/04/18 00:21:56;;;;;;;19.80;11.60;;;;;;;;;;5014575;28;20033;-65
2023/04/18 00:24:22;;;;;;;17.80;10.65;;;;;;;;;;5012652;28;20406;-64
2023/04/18 00:26:49;;;;;;;18.67;11.65;;;;;;;;;;5013267;28;20474;-63
2023/04/18 00:29:14;;;;;;;18.15;11.50;;;;;;;;;;5014499;28;20054;-65
2023/04/18 00:31:40;;;;;;;19.02;11.05;;;;;;;;;;5014415;28;20073;-64
2023/04/18 00:34:06;;;;;;;17.25;10.73;;;;;;;;;;5012528;28;20022;-63
2023/04/18 00:36:32;;;;;;;20.17;11.85;;;;;;;;;;5014405;28;20037;-63
2023/04/18 00:38:58;;;;;;;17.30;11.13;;;;;;;;;;5012880;28;20030;-64
2023/04/18 00:41:26;;;;;;;17.80;10.98;;;;;;;;;;5014216;28;20122;-65
2023/04/18 00:43:53;;;;;;;17.38;10.73;;;;;;;;;;5013349;28;20038;-66
2023/04/18 00:46:19;;;;;;;18.40;11.18;;;;;;;;;;5014160;28;20406;-63
2023/04/18 00:48:46;;;;;;;17.90;11.63;;;;;;;;;;5013825;28;20030;-63
2023/04/18 00:51:12;;;;;;;18.35;10.88;;;;;;;;;;5014012;28;20544;-63
2023/04/18 00:53:40;;;;;;;18.35;11.48;;;;;;;;;;5013026;28;20030;-64
2023/04/18 00:56:06;;;;;;;18.90;11.20;;;;;;;;;;5014050;28;20030;-64
2023/04/18 00:58:32;;;;;;;17.83;11.32;;;;;;;;;;5012495;28;20072;-64
2023/04/18 01:00:58;;;;;;;18.50;11.30;;;;;;;;;;5013794;28;20026;-64
2023/04/18 01:03:27;;;;;;;17.10;10.18;;;;;;;;;;5012033;28;20017;-65
2023/04/18 01:05:54;;;;;;;17.38;11.18;;;;;;;;;;5013752;28;20026;-63
2023/04/18 01:08:20;;;;;;;20.80;11.73;;;;;;;;;;5013620;28;20494;-64
2023/04/18 01:10:47;;;;;;;19.73;11.85;;;;;;;;;;5012513;28;20033;-64
2023/04/18 01:13:13;;;;;;;17.88;11.13;;;;;;;;;;5012825;28;20065;-64
2023/04/18 01:15:41;;;;;;;17.83;10.85;;;;;;;;;;5009119;28;20026;-64
2023/04/18 01:18:07;;;;;;;17.83;10.70;;;;;;;;;;5013171;28;20029;-63
2023/04/18 01:20:34;;;;;;;17.15;10.75;;;;;;;;;;5013462;28;20018;-64
2023/04/18 01:23:01;;;;;;;17.85;10.93;;;;;;;;;;5013029;28;20113;-64
2023/04/18 01:25:27;;;;;;;18.02;11.10;;;;;;;;;;5013299;28;20061;-64
2023/04/18 01:27:53;;;;;;;17.90;11.50;;;;;;;;;;5012032;28;20049;-63
2023/04/18 01:30:19;;;;;;;18.17;11.27;;;;;;;;;;5013410;28;20030;-64
2023/04/18 01:32:45;;;;;;;17.90;11.05;;;;;;;;;;5014314;28;20045;-65
2023/04/18 01:35:11;;;;;;;17.65;11.43;;;;;;;;;;5011832;28;20022;-64
2023/04/18 01:37:37;;;;;;;18.13;11.20;;;;;;;;;;5013024;28;20034;-64
2023/04/18 01:40:03;;;;;;;18.45;11.55;;;;;;;;;;5011754;28;20060;-65
2023/04/18 01:42:29;;;;;;;17.80;11.15;;;;;;;;;;5011594;28;20668;-63
2023/04/18 01:44:55;;;;;;;17.55;10.90;;;;;;;;;;5012076;28;20026;-64
2023/04/18 01:47:21;;;;;;;18.98;11.13;;;;;;;;;;5013111;28;20022;-64
2023/04/18 01:49:47;;;;;;;19.25;11.27;;;;;;;;;;5011531;28;20037;-63
2023/04/18 01:52:13;;;;;;;17.42;11.10;;;;;;;;;;5012844;28;20120;-65
2023/04/18 01:54:40;;;;;;;18.67;11.15;;;;;;;;;;5012002;28;20124;-65
2023/04/18 01:57:06;;;;;;;17.33;10.75;;;;;;;;;;5012869;28;20156;-64
2023/04/18 01:59:32;;;;;;;18.65;11.38;;;;;;;;;;5012723;28;20496;-64
2023/04/18 02:01:58;;;;;;;19.25;11.60;;;;;;;;;;5012236;28;20053;-63
2023/04/18 02:04:25;;;;;;;18.17;11.60;;;;;;;;;;5012060;28;20022;-65
2023/04/18 02:06:51;;;;;;;22.98;13.77;;;;;;;;;;5012348;28;20025;-64
2023/04/18 02:09:17;;;;;;;19.15;11.57;;;;;;;;;;5012511;28;20028;-64
2023/04/18 02:11:43;;;;;;;17.85;11.65;;;;;;;;;;5012663;28;20088;-64
2023/04/18 02:14:09;;;;;;;17.38;10.70;;;;;;;;;;5010594;28;20026;-64
2023/04/18 02:16:35;;;;;;;17.60;11.27;;;;;;;;;;5012788;28;20482;-65
2023/04/18 02:19:03;;;;;;;17.52;11.00;;;;;;;;;;5012580;28;20026;-64
2023/04/18 02:21:29;;;;;;;19.00;11.52;;;;;;;;;;5011503;28;20022;-64
2023/04/18 02:23:55;;;;;;;19.10;11.48;;;;;;;;;;5012189;28;20033;-64
2023/04/18 02:26:21;;;;;;;19.17;10.85;;;;;;;;;;5011178;28;20466;-64
2023/04/18 02:28:47;;;;;;;16.67;10.57;;;;;;;;;;5011078;28;20037;-65
2023/04/18 02:31:14;;;;;;;18.13;10.98;;;;;;;;;;5011078;28;20029;-63
2023/04/18 02:33:43;;;;;;;19.58;11.70;;;;;;;;;;5011264;28;20028;-65
2023/04/18 02:36:10;;;;;;;18.42;11.20;;;;;;;;;;5011124;28;20080;-63
2023/04/18 02:38:36;;;;;;;19.23;11.48;;;;;;;;;;5012237;28;20057;-65
2023/04/18 02:41:02;;;;;;;18.77;11.15;;;;;;;;;;5012268;28;20026;-64
2023/04/18 02:43:28;;;;;;;18.15;11.90;;;;;;;;;;5010481;28;20104;-64
2023/04/18 02:45:54;;;;;;;17.70;11.45;;;;;;;;;;5012244;28;20028;-63
2023/04/18 02:48:20;;;;;;;17.58;10.77;;;;;;;;;;5012245;28;20568;-64
2023/04/18 02:50:46;;;;;;;18.13;11.55;;;;;;;;;;5012214;28;20030;-63
2023/04/18 02:53:12;;;;;;;17.92;11.40;;;;;;;;;;5010266;28;20057;-64
2023/04/18 02:55:38;;;;;;;19.35;11.30;;;;;;;;;;5012272;28;20032;-62
2023/04/18 02:58:04;;;;;;;21.67;11.23;;;;;;;;;;5010566;28;20030;-64
2023/04/18 03:00:30;;;;;;;18.38;10.68;;;;;;;;;;5011083;28;20042;-64
2023/04/18 03:02:56;;;;;;;16.98;11.30;;;;;;;;;;5010427;28;20299;-62
2023/04/18 03:05:22;;;;;;;18.20;11.10;;;;;;;;;;5010726;28;20085;-64
2023/04/18 03:07:48;;;;;;;18.50;11.75;;;;;;;;;;5012462;28;20057;-65
2023/04/18 03:10:15;;;;;;;16.95;10.93;;;;;;;;;;5012350;28;20029;-65
2023/04/18 03:12:41;;;;;;;18.85;10.93;;;;;;;;;;5012221;28;20029;-65
2023/04/18 03:15:07;;;;;;;18.40;10.93;;;;;;;;;;5011234;28;20026;-64
2023/04/18 03:17:33;;;;;;;19.27;11.65;;;;;;;;;;5013515;28;20053;-64
2023/04/18 03:19:59;;;;;;;18.10;11.38;;;;;;;;;;5015876;28;20022;-64
2023/04/18 03:22:25;;;;;;;18.15;11.30;;;;;;;;;;5015612;28;20037;-64
2023/04/18 03:24:51;;;;;;;17.98;11.25;;;;;;;;;;5014864;28;20441;-65
2023/04/18 03:27:17;;;;;;;18.33;11.68;;;;;;;;;;5015767;28;20048;-64
2023/04/18 03:29:43;;;;;;;18.50;11.85;;;;;;;;;;5015608;28;20026;-64
2023/04/18 03:32:09;;;;;;;18.25;11.45;;;;;;;;;;5015389;28;20083;-63
2023/04/18 03:34:35;;;;;;;20.45;11.75;;;;;;;;;;5014577;28;20532;-64
2023/04/18 03:37:01;;;;;;;18.73;11.95;;;;;;;;;;5014119;28;20030;-64
2023/04/18 03:39:27;;;;;;;18.75;11.30;;;;;;;;;;5013740;28;20411;-64
2023/04/18 03:41:53;;;;;;;19.50;11.80;;;;;;;;;;5015295;28;20021;-64
2023/04/18 03:44:19;;;;;;;18.75;11.73;;;;;;;;;;5014554;28;20026;-64
2023/04/18 03:46:45;;;;;;;19.60;12.32;;;;;;;;;;5015077;28;20018;-65
2023/04/18 03:49:11;;;;;;;19.35;12.63;;;;;;;;;;5014936;28;20041;-65
2023/04/18 03:51:46;;;;;;;18.00;11.50;;;;;;;;;;5015207;28;20080;-64
2023/04/18 03:54:12;;;;;;;17.80;11.40;;;;;;;;;;5014461;28;20034;-64
2023/04/18 03:56:38;;;;;;;18.90;11.80;;;;;;;;;;5013846;28;20482;-64
2023/04/18 03:59:04;;;;;;;19.10;12.45;;;;;;;;;;5013667;28;20395;-65
2023/04/18 04:01:30;;;;;;;19.02;11.57;;;;;;;;;;5012080;28;20030;-65
2023/04/18 04:03:56;;;;;;;19.05;12.05;;;;;;;;;;5014423;28;20029;-64
2023/04/18 04:06:22;;;;;;;19.55;12.07;;;;;;;;;;5015108;28;20398;-64
2023/04/18 04:08:48;;;;;;;18.48;12.10;;;;;;;;;;5014950;28;20561;-65
2023/04/18 04:11:14;;;;;;;21.92;13.00;;;;;;;;;;5014989;28;20089;-64
2023/04/18 04:13:40;;;;;;;19.08;11.65;;;;;;;;;;5014161;28;20026;-65
2023/04/18 04:16:07;;;;;;;18.20;12.02;;;;;;;;;;5014697;28;20156;-64
2023/04/18 04:18:33;;;;;;;18.13;12.25;;;;;;;;;;5014372;28;20036;-63
2023/04/18 04:20:59;;;;;;;20.15;13.18;;;;;;;;;;5014641;28;20022;-63
2023/04/18 04:23:25;;;;;;;19.38;13.13;;;;;;;;;;5012381;28;20130;-64
2023/04/18 04:25:54;;;;;;;21.15;13.60;;;;;;;;;;5014483;28;20513;-64
2023/04/18 04:28:25;;;;;;;18.70;12.88;;;;;;;;;;5012544;28;20036;-64
2023/04/18 04:30:51;;;;;;;20.23;12.93;;;;;;;;;;5014441;28;20018;-64
2023/04/18 04:33:24;;;;;;;19.00;12.45;;;;;;;;;;5013623;28;20037;-64
2023/04/18 04:35:51;;;;;;;19.77;12.13;;;;;;;;;;5014313;28;20026;-64
2023/04/18 04:38:18;;;;;;;19.33;12.88;;;;;;;;;;5012776;28;20037;-64
2023/04/18 04:40:45;;;;;;;21.87;13.93;;;;;;;;;;5014041;28;20160;-64
2023/04/18 04:43:11;;;;;;;20.98;13.35;;;;;;;;;;5013064;28;20269;-64
2023/04/18 04:45:41;;;;;;;19.27;12.45;;;;;;;;;;5013922;28;20072;-66
2023/04/18 04:48:07;;;;;;;19.27;12.35;;;;;;;;;;5012471;28;20487;-65
2023/04/18 04:50:35;;;;;;;19.80;12.10;;;;;;;;;;5013868;28;20037;-62
2023/04/18 04:53:01;;;;;;;19.57;12.80;;;;;;;;;;5012472;28;20494;-65
2023/04/18 04:55:27;;;;;;;22.20;12.82;;;;;;;;;;5012159;28;20037;-63
2023/04/18 04:57:56;;;;;;;18.90;12.18;;;;;;;;;;5012211;28;20032;-63
2023/04/18 05:00:22;;;;;;;19.10;11.98;;;;;;;;;;5013312;28;20022;-64
2023/04/18 05:02:48;;;;;;;20.70;12.07;;;;;;;;;;5010561;28;20026;-63
2023/04/18 05:05:14;;;;;;;18.55;12.23;;;;;;;;;;5012339;28;20033;-63
2023/04/18 05:07:40;;;;;;;20.20;12.75;;;;;;;;;;5012132;28;20076;-65
2023/04/18 05:10:06;;;;;;;19.55;12.13;;;;;;;;;;5011931;28;20014;-64
2023/04/18 05:12:32;;;;;;;21.77;12.63;;;;;;;;;;5013230;28;20049;-64
2023/04/18 05:14:58;;;;;;;19.83;12.98;;;;;;;;;;5012829;28;20025;-64
2023/04/18 05:17:24;;;;;;;19.75;12.90;;;;;;;;;;5011947;28;20516;-65
2023/04/18 05:19:50;;;;;;;19.50;12.05;;;;;;;;;;5012938;28;20034;-64
2023/04/18 05:22:16;;;;;;;19.55;12.98;;;;;;;;;;5012934;28;20026;-65
2023/04/18 05:24:42;;;;;;;19.33;13.13;;;;;;;;;;5011151;28;20461;-64
2023/04/18 05:27:08;;;;;;;20.80;13.23;;;;;;;;;;5013046;28;20026;-64
2023/04/18 05:29:34;;;;;;;21.02;12.75;;;;;;;;;;5012587;28;20401;-63
2023/04/18 05:32:01;;;;;;;19.90;13.35;;;;;;;;;;5012775;28;20026;-64
2023/04/18 05:34:27;;;;;;;20.55;13.77;;;;;;;;;;5011749;28;20466;-63
2023/04/18 05:36:53;;;;;;;20.98;14.18;;;;;;;;;;5012008;28;20040;-64
2023/04/18 05:39:19;;;;;;;25.25;17.10;;;;;;;;;;5013552;28;20049;-61
2023/04/18 05:41:45;;;;;;;22.92;15.05;;;;;;;;;;5000014;28;20042;-65
2023/04/18 05:44:11;;;;;;;21.13;14.23;;;;;;;;;;5008589;28;20106;-64
2023/04/18 05:46:37;;;;;;;20.40;14.13;;;;;;;;;;4992557;28;20132;-63
2023/04/18 05:49:03;;;;;;;20.58;14.05;;;;;;;;;;5008261;22;20069;-64
2023/04/18 05:51:30;;;;;;;20.70;13.75;;;;;;;;;;4991995;28;20045;-64
2023/04/18 05:53:56;;;;;;;21.90;14.60;;;;;;;;;;4991517;28;20023;-60
2023/04/18 05:56:22;;;;;;;25.42;16.80;;;;;;;;;;4992013;28;20141;-63
2023/04/18 05:58:50;;;;;;;19.95;14.27;;;;;;;;;;4991034;28;20060;-63
2023/04/18 06:01:17;;;;;;;21.65;15.02;;;;;;;;;;4991595;28;20094;-63
2023/04/18 06:03:43;;;;;;;21.60;14.68;;;;;;;;;;4991336;28;20018;-63
2023/04/18 06:06:09;;;;;;;24.67;14.73;;;;;;;;;;4991986;28;20031;-65
2023/04/18 06:08:38;;;;;;;22.88;13.00;;;;;;;;;;4990856;28;20033;-64
2023/04/18 06:11:04;;;;;;;21.63;14.10;;;;;;;;;;4991767;28;20050;-64
2023/04/18 06:13:30;;;;;;;22.27;14.57;;;;;;;;;;4990847;28;20026;-64
2023/04/18 06:15:56;;;;;;;21.55;14.25;;;;;;;;;;4991695;28;20022;-65
2023/04/18 06:18:22;;;;;;;23.67;16.48;;;;;;;;;;4973710;28;20395;-64
2023/04/18 06:20:48;;;;;;;22.08;14.00;;;;;;;;;;4991163;28;20034;-64
2023/04/18 06:23:14;;;;;;;21.23;14.30;;;;;;;;;;4990997;28;20519;-63
2023/04/18 06:25:43;;;;;;;20.90;14.23;;;;;;;;;;4991896;28;20097;-64
2023/04/18 06:28:09;;;;;;;22.33;14.82;;;;;;;;;;4973818;28;20041;-65
2023/04/18 06:30:35;;;;;;;21.33;15.02;;;;;;;;;;4974176;28;20052;-62
2023/04/18 06:33:01;;;;;;;20.88;14.38;;;;;;;;;;4991371;28;20037;-61
2023/04/18 06:35:28;;;;;;;22.27;15.32;;;;;;;;;;4991198;28;20418;-63
2023/04/18 06:37:54;;;;;;;21.60;14.95;;;;;;;;;;4991429;28;20068;-63
2023/04/18 06:40:20;;;;;;;21.75;14.68;;;;;;;;;;4991834;28;20033;-62
2023/04/18 06:42:46;;;;;;;22.25;14.90;;;;;;;;;;4974309;28;20509;-63
2023/04/18 06:45:12;;;;;;;20.75;13.95;;;;;;;;;;4991433;28;20022;-63
2023/04/18 06:47:39;;;;;;;22.52;15.32;;;;;;;;;;4992116;28;20026;-63
2023/04/18 06:50:06;;;;;;;23.98;14.43;;;;;;;;;;4989998;28;20076;-63
2023/04/18 06:52:32;;;;;;;21.70;14.00;;;;;;;;;;4990696;28;20018;-64
2023/04/18 06:54:58;;;;;;;24.73;14.85;;;;;;;;;;4990977;28;20025;-63
2023/04/18 06:57:25;;;;;;;25.08;15.25;;;;;;;;;;4991233;28;20023;-63
2023/04/18 06:59:51;;;;;;;22.55;15.05;;;;;;;;;;4990982;28;20034;-61
2023/04/18 07:02:17;;;;;;;23.13;14.48;;;;;;;;;;4990934;28;20033;-63
2023/04/18 07:04:43;;;;;;;23.50;15.05;;;;;;;;;;4990056;28;20030;-63
2023/04/18 07:07:09;;;;;;;21.55;14.88;;;;;;;;;;4990473;28;20468;-63
2023/04/18 07:09:35;;;;;;;22.70;15.27;;;;;;;;;;4991250;28;20026;-64
2023/04/18 07:12:01;;;;;;;22.80;14.88;;;;;;;;;;4991013;28;20046;-64
2023/04/18 07:14:27;;;;;;;21.65;13.93;;;;;;;;;;4990483;28;20085;-64
2023/04/18 07:16:53;;;;;;;22.15;14.60;;;;;;;;;;4991641;28;20030;-64
2023/04/18 07:19:19;;;;;;;23.77;14.23;;;;;;;;;;4991588;28;20038;-65
2023/04/18 07:21:45;;;;;;;21.92;14.23;;;;;;;;;;4991456;28;20057;-64
2023/04/18 07:24:11;;;;;;;21.25;14.43;;;;;;;;;;4982069;28;20026;-64
2023/04/18 07:26:38;;;;;;;22.02;14.80;;;;;;;;;;4991210;28;20030;-63
2023/04/18 07:29:04;;;;;;;21.40;14.50;;;;;;;;;;4991651;28;20034;-63
2023/04/18 07:31:30;;;;;;;22.27;14.10;;;;;;;;;;4991767;28;20399;-61
2023/04/18 07:33:57;;;;;;;22.25;14.18;;;;;;;;;;4991757;28;20022;-62
2023/04/18 07:36:23;;;;;;;22.63;14.40;;;;;;;;;;4991674;28;20029;-62
2023/04/18 07:38:50;;;;;;;21.92;14.23;;;;;;;;;;4991247;28;20399;-62
2023/04/18 07:41:16;;;;;;;22.23;14.52;;;;;;;;;;4990874;28;20026;-58
2023/04/18 07:43:43;;;;;;;21.05;13.88;;;;;;;;;;4990629;28;20033;-61
2023/04/18 07:46:10;;;;;;;22.67;14.10;;;;;;;;;;4990609;28;20101;-60
2023/04/18 07:48:36;;;;;;;24.40;15.23;;;;;;;;;;4989347;28;20030;-61
2023/04/18 07:51:03;;;;;;;23.77;15.00;;;;;;;;;;4990620;28;20534;-58
2023/04/18 07:53:29;;;;;;;24.73;15.32;;;;;;;;;;4990651;28;20364;-59
2023/04/18 07:55:55;;;;;;;23.83;15.70;;;;;;;;;;4990724;28;20026;-59
2023/04/18 07:58:21;;;;;;;24.83;15.23;;;;;;;;;;4990792;28;20034;-59
2023/04/18 08:00:47;;;;;;;22.45;14.10;;;;;;;;;;4990700;28;20110;-62
2023/04/18 08:03:13;;;;;;;23.50;16.05;;;;;;;;;;4990510;28;20313;-59
2023/04/18 08:05:39;;;;;;;22.45;15.25;;;;;;;;;;4993905;28;20067;-58
2023/04/18 08:08:06;;;;;;;27.52;14.73;;;;;;;;;;4996043;28;20053;-58
2023/04/18 08:10:33;;;;;;;28.58;15.38;;;;;;;;;;4995860;28;20055;-61
2023/04/18 08:13:00;;;;;;;26.92;16.02;;;;;;;;;;4994977;28;20022;-61
2023/04/18 08:15:27;;;;;;;23.80;15.50;;;;;;;;;;4994314;28;20502;-59
2023/04/18 08:17:54;;;;;;;23.60;14.98;;;;;;;;;;4994461;28;20030;-62
2023/04/18 08:20:20;;;;;;;24.20;16.30;;;;;;;;;;4994796;28;20027;-64
2023/04/18 08:22:46;;;;;;;23.95;15.57;;;;;;;;;;4995018;28;20026;-64
2023/04/18 08:31:19;;;;;;;25.15;15.07;;;;;;;;;;4993387;28;20089;-66
2023/04/18 08:33:45;;;;;;;24.63;16.70;;;;;;;;;;4993803;28;20022;-62
2023/04/18 08:36:11;;;;;;;24.60;16.75;;;;;;;;;;4993644;28;20092;-66
2023/04/18 08:38:37;;;;;;;24.02;15.98;;;;;;;;;;4993708;28;20084;-66
2023/04/18 08:41:03;;;;;;;23.42;16.10;;;;;;;;;;4992618;28;20073;-65
2023/04/18 08:43:30;;;;;;;23.75;16.67;;;;;;;;;;4993260;28;20018;-63
2023/04/18 08:45:59;;;;;;;28.35;17.20;;;;;;;;;;4993639;28;20034;-66
2023/04/18 08:48:27;;;;;;;25.55;16.52;;;;;;;;;;4993455;28;20030;-63
2023/04/18 08:50:56;;;;;;;23.33;16.50;;;;;;;;;;4991039;28;20097;-68
2023/04/18 08:53:22;;;;;;;26.15;17.70;;;;;;;;;;4995126;28;20026;-65
2023/04/18 08:55:52;;;;;;;27.10;16.92;;;;;;;;;;4993240;28;20034;-64
2023/04/18 08:58:21;;;;;;;26.77;16.80;;;;;;;;;;4993347;28;20387;-63
2023/04/18 09:00:54;;;;;;;22.52;16.33;;;;;;;;;;4974050;28;20149;-65
2023/04/18 09:03:38;;;;;;;24.80;16.98;;;;;;;;;;4975135;28;20031;-65
2023/04/18 09:06:12;;;;;;;26.13;16.70;;;;;;;;;;4993411;28;20026;-63
2023/04/18 09:08:40;;;;;;;32.47;18.63;;;;;;;;;;4975675;28;20030;-64
2023/04/18 09:11:25;;;;;;;26.38;16.95;;;;;;;;;;4992507;28;20030;-65
2023/04/18 09:13:52;;;;;;;24.27;16.45;;;;;;;;;;4992886;28;20092;-64
2023/04/18 09:16:19;;;;;;;22.95;16.92;;;;;;;;;;4992497;28;20050;-65
2023/04/18 09:19:04;;;;;;;23.52;16.38;;;;;;;;;;4992640;28;20442;-65
2023/04/18 09:21:31;;;;;;;27.13;16.67;;;;;;;;;;4975249;28;20022;-64
2023/04/18 09:24:17;;;;;;;23.48;15.57;;;;;;;;;;4992398;28;20105;-64
2023/04/18 09:26:43;;;;;;;23.63;16.67;;;;;;;;;;4993151;28;20027;-64
2023/04/18 09:29:08;;;;;;;24.83;17.50;;;;;;;;;;4992385;28;20030;-65
2023/04/18 09:31:34;;;;;;;23.67;16.70;;;;;;;;;;4992612;28;20034;-64
2023/04/18 09:34:02;;;;;;;23.85;16.98;;;;;;;;;;4992291;28;20038;-65
2023/04/18 09:36:29;;;;;;;26.58;17.05;;;;;;;;;;4993131;28;20371;-64
2023/04/18 09:38:55;;;;;;;27.05;17.25;;;;;;;;;;4992384;28;20054;-64
2023/04/18 09:41:22;;;;;;;24.83;16.95;;;;;;;;;;4993516;28;20026;-64
2023/04/18 09:43:48;;;;;;;25.83;17.48;;;;;;;;;;4992701;28;20026;-62
2023/04/18 09:46:16;;;;;;;23.50;17.55;;;;;;;;;;4992446;28;20018;-65
2023/04/18 09:48:42;;;;;;;25.80;17.37;;;;;;;;;;4992247;28;20066;-65
2023/04/18 09:51:14;;;;;;;23.25;16.95;;;;;;;;;;4992402;28;20357;-63
2023/04/18 09:53:43;;;;;;;24.25;16.55;;;;;;;;;;4992097;28;20080;-63
2023/04/18 09:56:12;;;;;;;25.88;17.98;;;;;;;;;;4993903;28;20099;-64
2023/04/18 09:58:40;;;;;;;26.55;17.88;;;;;;;;;;4991905;28;20068;-64
2023/04/18 10:01:06;;;;;;;27.23;19.65;;;;;;;;;;4991643;28;20026;-64
2023/04/18 10:03:33;;;;;;;28.25;21.33;;;;;;;;;;4991395;28;20332;-64
2023/04/18 10:05:59;;;;;;;26.40;19.65;;;;;;;;;;4991986;28;20067;-65
2023/04/18 10:08:26;;;;;;;28.13;20.00;;;;;;;;;;4991610;28;20035;-64
2023/04/18 10:10:54;;;;;;;27.27;19.98;;;;;;;;;;4991556;28;20033;-65
2023/04/18 10:13:22;;;;;;;27.80;19.35;;;;;;;;;;4987048;28;20479;-66
2023/04/18 10:15:51;;;;;;;26.88;19.30;;;;;;;;;;4991804;28;20030;-66
2023/04/18 10:18:21;;;;;;;27.20;20.10;;;;;;;;;;5006947;28;20034;-65
2023/04/18 10:20:47;;;;;;;26.98;18.98;;;;;;;;;;4991400;28;20030;-65
2023/04/18 10:23:35;;;;;;;27.90;19.73;;;;;;;;;;4991785;28;20027;-65
2023/04/18 10:26:04;;;;;;;27.60;19.38;;;;;;;;;;4991126;28;20070;-62
2023/04/18 10:28:53;;;;;;;27.00;20.30;;;;;;;;;;4990589;28;20064;-65
2023/04/18 10:31:19;;;;;;;;;;;;;;;;;;4991139;28;20018;-64
2023/04/18 10:33:49;;;;;;;27.05;20.13;;;;;;;;;;4990784;28;20363;-65
2023/04/18 10:36:19;;;;;;;27.17;19.83;;;;;;;;;;4990769;28;20552;-65
2023/04/18 10:38:48;;;;;;;26.65;20.25;;;;;;;;;;4991031;28;20022;-65
2023/04/18 10:41:14;;;;;;;26.58;20.58;;;;;;;;;;4991046;28;20387;-64
2023/04/18 10:43:59;;;;;;;26.33;20.05;;;;;;;;;;4990452;28;20019;-65
2023/04/18 10:46:25;;;;;;;27.60;20.25;;;;;;;;;;4991670;28;20957;-63
2023/04/18 10:49:10;;;;;;;28.48;22.10;;;;;;;;;;4991169;28;20067;-65
2023/04/18 10:51:36;;;;;;;29.42;21.00;;;;;;;;;;4989841;28;20065;-65
2023/04/18 10:54:02;;;;;;;25.75;20.42;;;;;;;;;;4991233;28;20042;-64
2023/04/18 10:56:28;;;;;;;29.42;22.23;;;;;;;;;;4991230;28;20112;-65
2023/04/18 10:58:54;;;;;;;26.67;21.67;;;;;;;;;;4991251;28;20030;-65
2023/04/18 11:01:27;;;;;;;28.30;21.25;;;;;;;;;;4991437;28;20088;-65
2023/04/18 11:03:54;;;;;;;27.13;21.90;;;;;;;;;;4991032;28;20092;-64
2023/04/18 11:06:25;;;;;;;28.42;21.48;;;;;;;;;;4991322;28;20026;-66
2023/04/18 11:08:52;;;;;;;28.70;21.95;;;;;;;;;;4991168;28;20061;-65
2023/04/18 11:11:18;;;;;;;27.83;21.80;;;;;;;;;;4991122;28;20030;-64
2023/04/18 11:13:57;;;;;;;27.88;21.42;;;;;;;;;;4990894;28;20032;-62
2023/04/18 11:16:31;;;;;;;26.45;20.10;;;;;;;;;;4991109;28;20380;-65
2023/04/18 11:18:58;;;;;;;29.50;20.83;;;;;;;;;;4991318;28;20437;-60
2023/04/18 11:21:26;;;;;;;28.25;20.67;;;;;;;;;;4989547;28;20026;-69
2023/04/18 11:23:53;;;;;;;26.63;20.63;;;;;;;;;;4990938;28;20030;-64
2023/04/18 11:26:20;;;;;;;27.75;20.92;;;;;;;;;;4989688;28;20479;-64
2023/04/18 11:28:51;;;;;;;25.63;19.70;;;;;;;;;;4989458;28;20561;-65
2023/04/18 11:31:16;;;;;;;27.38;20.35;;;;;;;;;;4991274;28;20531;-65
2023/04/18 11:33:46;;;;;;;27.08;20.77;;;;;;;;;;4990988;28;20022;-65
2023/04/18 11:36:12;;;;;;;27.80;21.02;;;;;;;;;;4991287;28;20535;-64
2023/04/18 11:38:40;;;;;;;24.63;20.15;;;;;;;;;;4991449;28;20066;-64
2023/04/18 11:41:11;;;;;;;26.55;20.23;;;;;;;;;;4995022;28;20475;-65
2023/04/18 11:43:41;;;;;;;25.92;20.27;;;;;;;;;;4994596;28;20027;-63
2023/04/18 11:46:07;;;;;;;25.50;20.55;;;;;;;;;;4992746;28;20022;-64
2023/04/18 11:51:42;;;;;;;25.77;19.98;;;;;;;;;;4991249;28;20051;-68
2023/04/18 11:54:28;;;;;;;25.73;21.05;;;;;;;;;;4987453;28;20069;-68
2023/04/18 11:56:54;;;;;;;25.38;20.58;;;;;;;;;;4995055;28;20057;-69
2023/04/18 11:59:20;;;;;;;25.48;21.08;;;;;;;;;;4995263;28;20054;-68
2023/04/18 12:01:46;;;;;;;25.02;20.88;;;;;;;;;;4994867;28;20070;-68
2023/04/18 12:04:12;;;;;;;23.70;20.10;;;;;;;;;;4993968;28;20026;-68
2023/04/18 12:06:45;;;;;;;26.13;21.23;;;;;;;;;;4995441;28;20101;-68
2023/04/18 12:09:18;;;;;;;25.73;21.02;;;;;;;;;;4993058;28;20057;-68
2023/04/18 12:11:44;;;;;;;24.65;20.85;;;;;;;;;;4982177;28;20042;-68
2023/04/18 12:14:20;;;;;;;25.58;20.90;;;;;;;;;;4976866;28;20014;-68
2023/04/18 12:16:48;;;;;;;25.25;20.73;;;;;;;;;;4992602;28;20023;-68
2023/04/18 12:19:14;;;;;;;23.85;20.33;;;;;;;;;;4988291;28;20045;-68
2023/04/18 12:21:59;;;;;;;24.88;19.98;;;;;;;;;;4981684;28;20023;-68
2023/04/18 12:24:25;;;;;;;25.10;21.55;;;;;;;;;;4983478;28;20287;-68
2023/04/18 12:26:51;;;;;;;24.27;21.27;;;;;;;;;;4984391;28;20498;-68
2023/04/18 12:29:17;;;;;;;24.30;20.38;;;;;;;;;;4984977;28;20026;-68
2023/04/18 12:31:43;;;;;;;25.52;19.90;;;;;;;;;;4965690;28;20022;-68
2023/04/18 12:34:10;;;;;;;22.98;19.45;;;;;;;;;;4984252;28;20033;-68
2023/04/18 12:36:36;;;;;;;22.55;19.25;;;;;;;;;;4962167;28;20066;-68
2023/04/18 12:39:02;;;;;;;24.52;21.10;;;;;;;;;;4993047;28;20026;-69
2023/04/18 12:41:28;;;;;;;24.48;19.98;;;;;;;;;;4994284;28;20169;-68
2023/04/18 12:43:54;;;;;;;22.52;19.23;;;;;;;;;;4994393;28;20496;-68
2023/04/18 12:46:20;;;;;;;21.52;18.33;;;;;;;;;;4976800;28;20026;-68
2023/04/18 12:48:46;;;;;;;26.65;20.63;;;;;;;;;;4985588;28;20495;-68
2023/04/18 12:51:12;;;;;;;22.83;19.52;;;;;;;;;;4983397;28;20033;-67
2023/04/18 12:53:38;;;;;;;22.70;18.88;;;;;;;;;;4984577;28;20069;-70
2023/04/18 12:56:05;;;;;;;23.55;20.00;;;;;;;;;;4983066;28;20033;-69
2023/04/18 12:58:31;;;;;;;23.40;20.10;;;;;;;;;;4984002;28;20080;-68
2023/04/18 13:00:57;;;;;;;24.50;19.42;;;;;;;;;;4983983;28;20042;-69
2023/04/18 13:03:23;;;;;;;23.08;19.27;;;;;;;;;;4982239;28;20019;-68
2023/04/18 13:05:51;;;;;;;28.35;20.35;;;;;;;;;;4983935;28;20049;-68
2023/04/18 13:08:17;;;;;;;24.33;19.98;;;;;;;;;;4983982;28;20019;-68
2023/04/18 13:10:44;;;;;;;21.85;17.98;;;;;;;;;;4964955;28;20178;-68
2023/04/18 13:13:10;;;;;;;25.33;19.38;;;;;;;;;;4983065;28;20038;-69
2023/04/18 13:15:36;;;;;;;26.55;19.75;;;;;;;;;;4984024;28;20023;-69
2023/04/18 13:18:04;;;;;;;23.50;18.38;;;;;;;;;;4982817;28;20383;-69
2023/04/18 13:20:30;;;;;;;24.05;18.95;;;;;;;;;;4984875;28;20097;-68
2023/04/18 13:22:56;;;;;;;22.35;18.52;;;;;;;;;;4982155;28;20073;-68
2023/04/18 13:25:22;;;;;;;23.45;19.20;;;;;;;;;;4981182;28;20015;-68
2023/04/18 13:27:52;;;;;;;23.13;18.85;;;;;;;;;;4984401;28;20033;-68
2023/04/18 13:30:18;;;;;;;24.08;18.60;;;;;;;;;;4989699;28;20048;-67
2023/04/18 13:32:44;;;;;;;22.25;19.30;;;;;;;;;;4993363;28;20026;-68
2023/04/18 13:35:11;;;;;;;22.65;18.23;;;;;;;;;;4975700;28;20453;-68
2023/04/18 13:37:37;;;;;;;23.00;18.58;;;;;;;;;;4993109;28;20026;-69
2023/04/18 13:40:04;;;;;;;23.55;18.48;;;;;;;;;;4974715;28;20023;-69
2023/04/18 13:42:30;;;;;;;22.88;18.55;;;;;;;;;;4976021;28;20443;-68
2023/04/18 13:44:57;;;;;;;23.30;18.77;;;;;;;;;;4975715;28;20023;-68
2023/04/18 13:47:23;;;;;;;23.00;19.52;;;;;;;;;;4975181;28;20106;-68
2023/04/18 13:49:49;;;;;;;21.63;18.48;;;;;;;;;;4994456;28;20065;-67
2023/04/18 13:52:16;;;;;;;23.23;19.20;;;;;;;;;;4997921;28;20034;-69
2023/04/18 13:54:42;;;;;;;23.00;19.05;;;;;;;;;;4982741;28;20117;-69
2023/04/18 13:57:11;;;;;;;20.88;18.08;;;;;;;;;;5012346;28;20034;-68
2023/04/18 13:59:41;;;;;;;20.98;17.70;;;;;;;;;;4985286;28;20027;-67
2023/04/18 14:02:07;;;;;;;24.00;19.17;;;;;;;;;;4991333;28;20048;-68
2023/04/18 14:04:34;;;;;;;23.02;19.10;;;;;;;;;;4974448;28;20387;-68
2023/04/18 14:07:00;;;;;;;20.70;18.23;;;;;;;;;;4992335;28;20050;-68
2023/04/18 14:09:26;;;;;;;24.80;19.02;;;;;;;;;;4974412;28;20041;-68
2023/04/18 14:11:52;;;;;;;21.90;17.58;;;;;;;;;;4991389;28;20097;-68
2023/04/18 14:14:18;;;;;;;25.48;18.08;;;;;;;;;;4991834;28;20161;-67
2023/04/18 14:16:44;;;;;;;23.02;18.30;;;;;;;;;;4992344;28;20026;-67
2023/04/18 14:19:11;;;;;;;20.77;17.40;;;;;;;;;;4987562;28;20033;-67
2023/04/18 14:21:37;;;;;;;20.92;16.35;;;;;;;;;;4989392;28;20026;-69
2023/04/18 14:24:04;;;;;;;24.92;18.05;;;;;;;;;;4974148;28;20182;-68
2023/04/18 14:26:30;;;;;;;20.67;17.20;;;;;;;;;;4992141;28;20019;-68
2023/04/18 14:28:56;;;;;;;22.20;17.42;;;;;;;;;;4991556;28;20022;-68